sensor_id;sensor_type;location;lat;lon;timestamp;P1;durP1;ratioP1;P2;durP2;ratioP2
19205;SDS011;59358;52.134;5.596;2024-03-23T00:55:31;51.72;;;21.13;;
19205;SDS011;59358;52.134;5.596;2024-03-23T00:57:58;53.35;;;20.98;;
19205;SDS011;59358;52.134;5.596;2024-03-23T01:00:24;50.33;;;21.75;;
19205;SDS011;59358;52.134;5.596;2024-03-23T01:02:50;58.30;;;21.30;;
19205;SDS011;59358;52.134;5.596;2024-03-23T01:05:16;52.08;;;21.95;;
19205;SDS011;59358;52.134;5.596;2024-03-23T01:07:43;56.78;;;21.88;;
19205;SDS011;59358;52.134;5.596;2024-03-23T01:10:09;50.80;;;21.88;;
19205;SDS011;59358;52.134;5.596;2024-03-23T01:12:37;58.58;;;22.15;;
19205;SDS011;59358;52.134;5.596;2024-03-23T01:15:03;50.00;;;21.80;;
19205;SDS011;59358;52.134;5.596;2024-03-23T01:17:30;58.97;;;23.40;;
19205;SDS011;59358;52.134;5.596;2024-03-23T01:19:57;58.83;;;21.73;;
19205;SDS011;59358;52.134;5.596;2024-03-23T01:22:23;53.08;;;22.40;;
19205;SDS011;59358;52.134;5.596;2024-03-23T01:24:50;61.50;;;22.35;;
19205;SDS011;59358;52.134;5.596;2024-03-23T01:27:17;57.20;;;21.65;;
19205;SDS011;59358;52.134;5.596;2024-03-23T01:29:44;55.47;;;21.52;;
19205;SDS011;59358;52.134;5.596;2024-03-23T01:32:11;50.53;;;21.60;;
19205;SDS011;59358;52.134;5.596;2024-03-23T01:34:37;46.60;;;20.60;;
19205;SDS011;59358;52.134;5.596;2024-03-23T01:37:03;54.05;;;20.17;;
19205;SDS011;59358;52.134;5.596;2024-03-23T01:39:29;50.47;;;20.48;;
19205;SDS011;59358;52.134;5.596;2024-03-23T01:41:56;60.72;;;20.30;;
19205;SDS011;59358;52.134;5.596;2024-03-23T01:44:22;59.35;;;20.67;;
19205;SDS011;59358;52.134;5.596;2024-03-23T01:46:50;52.05;;;19.92;;
19205;SDS011;59358;52.134;5.596;2024-03-23T01:49:16;55.10;;;20.45;;
19205;SDS011;59358;52.134;5.596;2024-03-23T01:51:43;55.15;;;20.48;;
19205;SDS011;59358;52.134;5.596;2024-03-23T01:54:10;54.13;;;22.48;;
19205;SDS011;59358;52.134;5.596;2024-03-23T01:56:37;56.35;;;21.20;;
19205;SDS011;59358;52.134;5.596;2024-03-23T01:59:03;54.92;;;20.25;;
19205;SDS011;59358;52.134;5.596;2024-03-23T02:01:31;50.72;;;21.13;;
19205;SDS011;59358;52.134;5.596;2024-03-23T02:03:58;55.67;;;19.83;;
19205;SDS011;59358;52.134;5.596;2024-03-23T02:06:25;55.63;;;21.05;;
19205;SDS011;59358;52.134;5.596;2024-03-23T02:08:51;56.03;;;20.08;;
19205;SDS011;59358;52.134;5.596;2024-03-23T02:11:18;58.58;;;20.30;;
19205;SDS011;59358;52.134;5.596;2024-03-23T02:13:44;61.05;;;21.95;;
19205;SDS011;59358;52.134;5.596;2024-03-23T02:16:10;52.13;;;20.33;;
19205;SDS011;59358;52.134;5.596;2024-03-23T02:18:36;47.00;;;19.50;;
19205;SDS011;59358;52.134;5.596;2024-03-23T02:21:05;54.80;;;20.83;;
19205;SDS011;59358;52.134;5.596;2024-03-23T02:23:32;56.35;;;21.27;;
19205;SDS011;59358;52.134;5.596;2024-03-23T02:25:58;56.40;;;22.10;;
19205;SDS011;59358;52.134;5.596;2024-03-23T02:28:24;56.72;;;21.80;;
19205;SDS011;59358;52.134;5.596;2024-03-23T02:30:51;50.65;;;20.60;;
19205;SDS011;59358;52.134;5.596;2024-03-23T02:33:17;62.08;;;21.85;;
19205;SDS011;59358;52.134;5.596;2024-03-23T02:35:44;62.60;;;20.55;;
19205;SDS011;59358;52.134;5.596;2024-03-23T02:38:10;48.85;;;20.27;;
19205;SDS011;59358;52.134;5.596;2024-03-23T02:40:38;60.20;;;20.77;;
19205;SDS011;59358;52.134;5.596;2024-03-23T02:43:04;56.97;;;22.13;;
19205;SDS011;59358;52.134;5.596;2024-03-23T02:45:31;47.40;;;19.90;;
19205;SDS011;59358;52.134;5.596;2024-03-23T02:47:57;62.55;;;21.70;;
19205;SDS011;59358;52.134;5.596;2024-03-23T02:50:23;61.88;;;23.40;;
19205;SDS011;59358;52.134;5.596;2024-03-23T02:52:49;49.90;;;21.75;;
19205;SDS011;59358;52.134;5.596;2024-03-23T02:55:16;59.60;;;23.33;;
19205;SDS011;59358;52.134;5.596;2024-03-23T02:57:44;57.17;;;23.15;;
19205;SDS011;59358;52.134;5.596;2024-03-23T03:00:11;56.95;;;20.73;;
19205;SDS011;59358;52.134;5.596;2024-03-23T03:02:37;61.60;;;22.80;;
19205;SDS011;59358;52.134;5.596;2024-03-23T03:05:05;58.15;;;21.65;;
19205;SDS011;59358;52.134;5.596;2024-03-23T03:07:31;51.55;;;23.02;;
19205;SDS011;59358;52.134;5.596;2024-03-23T03:09:58;65.13;;;24.17;;
19205;SDS011;59358;52.134;5.596;2024-03-23T03:12:24;65.22;;;23.77;;
19205;SDS011;59358;52.134;5.596;2024-03-23T03:14:52;54.80;;;22.85;;
19205;SDS011;59358;52.134;5.596;2024-03-23T03:17:18;55.42;;;23.73;;
19205;SDS011;59358;52.134;5.596;2024-03-23T03:19:45;58.28;;;23.13;;
19205;SDS011;59358;52.134;5.596;2024-03-23T03:22:11;62.05;;;24.25;;
19205;SDS011;59358;52.134;5.596;2024-03-23T03:24:37;58.95;;;23.58;;
19205;SDS011;59358;52.134;5.596;2024-03-23T03:27:03;67.93;;;24.52;;
19205;SDS011;59358;52.134;5.596;2024-03-23T03:29:31;59.17;;;23.95;;
19205;SDS011;59358;52.134;5.596;2024-03-23T03:32:02;60.90;;;22.70;;
19205;SDS011;59358;52.134;5.596;2024-03-23T03:34:28;65.47;;;25.10;;
19205;SDS011;59358;52.134;5.596;2024-03-23T03:36:54;59.85;;;23.35;;
19205;SDS011;59358;52.134;5.596;2024-03-23T03:39:21;75.60;;;25.92;;
19205;SDS011;59358;52.134;5.596;2024-03-23T03:41:47;57.92;;;24.27;;
19205;SDS011;59358;52.134;5.596;2024-03-23T03:44:14;69.50;;;23.77;;
19205;SDS011;59358;52.134;5.596;2024-03-23T03:46:40;58.05;;;24.33;;
19205;SDS011;59358;52.134;5.596;2024-03-23T03:49:08;70.10;;;24.40;;
19205;SDS011;59358;52.134;5.596;2024-03-23T03:51:34;66.07;;;25.10;;
19205;SDS011;59358;52.134;5.596;2024-03-23T03:54:01;80.60;;;25.23;;
19205;SDS011;59358;52.134;5.596;2024-03-23T03:56:27;61.10;;;23.80;;
19205;SDS011;59358;52.134;5.596;2024-03-23T03:58:54;75.95;;;26.50;;
19205;SDS011;59358;52.134;5.596;2024-03-23T04:01:20;57.85;;;23.98;;
19205;SDS011;59358;52.134;5.596;2024-03-23T04:03:47;66.35;;;24.35;;
19205;SDS011;59358;52.134;5.596;2024-03-23T04:06:19;62.85;;;25.25;;
19205;SDS011;59358;52.134;5.596;2024-03-23T04:08:46;60.03;;;25.38;;
19205;SDS011;59358;52.134;5.596;2024-03-23T04:11:12;66.95;;;23.05;;
19205;SDS011;59358;52.134;5.596;2024-03-23T04:13:39;59.20;;;23.23;;
19205;SDS011;59358;52.134;5.596;2024-03-23T04:16:06;66.40;;;22.80;;
19205;SDS011;59358;52.134;5.596;2024-03-23T04:18:34;60.35;;;21.65;;
19205;SDS011;59358;52.134;5.596;2024-03-23T04:21:00;62.75;;;23.15;;
19205;SDS011;59358;52.134;5.596;2024-03-23T04:23:29;46.70;;;20.70;;
19205;SDS011;59358;52.134;5.596;2024-03-23T04:25:55;44.47;;;20.25;;
19205;SDS011;59358;52.134;5.596;2024-03-23T04:28:21;49.80;;;20.38;;
19205;SDS011;59358;52.134;5.596;2024-03-23T04:30:47;44.00;;;19.83;;
19205;SDS011;59358;52.134;5.596;2024-03-23T04:33:14;59.75;;;18.98;;
19205;SDS011;59358;52.134;5.596;2024-03-23T04:35:40;60.22;;;19.65;;
19205;SDS011;59358;52.134;5.596;2024-03-23T04:38:07;53.88;;;20.00;;
19205;SDS011;59358;52.134;5.596;2024-03-23T04:40:35;44.20;;;20.05;;
19205;SDS011;59358;52.134;5.596;2024-03-23T04:43:02;51.88;;;20.75;;
19205;SDS011;59358;52.134;5.596;2024-03-23T04:45:29;50.30;;;18.23;;
19205;SDS011;59358;52.134;5.596;2024-03-23T04:47:56;54.53;;;19.23;;
19205;SDS011;59358;52.134;5.596;2024-03-23T04:50:23;53.67;;;20.65;;
19205;SDS011;59358;52.134;5.596;2024-03-23T04:52:49;47.92;;;17.92;;
19205;SDS011;59358;52.134;5.596;2024-03-23T04:55:15;52.47;;;17.60;;
19205;SDS011;59358;52.134;5.596;2024-03-23T04:57:43;50.72;;;19.05;;
19205;SDS011;59358;52.134;5.596;2024-03-23T05:00:10;49.67;;;17.48;;
19205;SDS011;59358;52.134;5.596;2024-03-23T05:02:42;50.72;;;16.20;;
19205;SDS011;59358;52.134;5.596;2024-03-23T05:05:10;45.70;;;15.98;;
19205;SDS011;59358;52.134;5.596;2024-03-23T05:07:36;40.80;;;14.77;;
19205;SDS011;59358;52.134;5.596;2024-03-23T05:10:03;47.00;;;14.85;;
19205;SDS011;59358;52.134;5.596;2024-03-23T05:12:29;44.53;;;14.20;;
19205;SDS011;59358;52.134;5.596;2024-03-23T05:14:57;38.40;;;12.52;;
19205;SDS011;59358;52.134;5.596;2024-03-23T05:17:23;35.90;;;11.15;;
19205;SDS011;59358;52.134;5.596;2024-03-23T05:19:50;32.92;;;12.18;;
19205;SDS011;59358;52.134;5.596;2024-03-23T05:22:16;35.88;;;10.10;;
19205;SDS011;59358;52.134;5.596;2024-03-23T05:24:44;29.02;;;9.68;;
19205;SDS011;59358;52.134;5.596;2024-03-23T05:27:10;27.92;;;9.05;;
19205;SDS011;59358;52.134;5.596;2024-03-23T05:29:37;29.95;;;8.75;;
19205;SDS011;59358;52.134;5.596;2024-03-23T05:32:04;24.45;;;7.68;;
19205;SDS011;59358;52.134;5.596;2024-03-23T05:34:31;23.48;;;8.27;;
19205;SDS011;59358;52.134;5.596;2024-03-23T05:36:57;31.60;;;10.30;;
19205;SDS011;59358;52.134;5.596;2024-03-23T05:39:24;22.00;;;8.10;;
19205;SDS011;59358;52.134;5.596;2024-03-23T05:41:49;28.08;;;8.43;;
19205;SDS011;59358;52.134;5.596;2024-03-23T05:44:16;26.02;;;8.13;;
19205;SDS011;59358;52.134;5.596;2024-03-23T05:46:42;29.33;;;7.95;;
19205;SDS011;59358;52.134;5.596;2024-03-23T05:49:15;26.30;;;8.43;;
19205;SDS011;59358;52.134;5.596;2024-03-23T05:51:41;29.80;;;7.50;;
19205;SDS011;59358;52.134;5.596;2024-03-23T05:54:08;27.65;;;7.65;;
19205;SDS011;59358;52.134;5.596;2024-03-23T05:56:34;34.28;;;7.53;;
19205;SDS011;59358;52.134;5.596;2024-03-23T05:59:01;21.23;;;7.20;;
19205;SDS011;59358;52.134;5.596;2024-03-23T06:01:28;23.33;;;7.25;;
19205;SDS011;59358;52.134;5.596;2024-03-23T06:03:57;27.42;;;7.30;;
19205;SDS011;59358;52.134;5.596;2024-03-23T06:06:24;24.63;;;6.63;;
19205;SDS011;59358;52.134;5.596;2024-03-23T06:08:51;23.85;;;6.47;;
19205;SDS011;59358;52.134;5.596;2024-03-23T06:11:17;17.60;;;5.97;;
19205;SDS011;59358;52.134;5.596;2024-03-23T06:13:44;19.85;;;5.35;;
19205;SDS011;59358;52.134;5.596;2024-03-23T06:16:09;20.77;;;4.95;;
19205;SDS011;59358;52.134;5.596;2024-03-23T06:18:36;23.05;;;5.05;;
19205;SDS011;59358;52.134;5.596;2024-03-23T06:21:02;17.98;;;4.57;;
19205;SDS011;59358;52.134;5.596;2024-03-23T06:23:31;16.83;;;4.25;;
19205;SDS011;59358;52.134;5.596;2024-03-23T06:25:57;19.80;;;4.45;;
19205;SDS011;59358;52.134;5.596;2024-03-23T06:28:23;20.48;;;4.72;;
19205;SDS011;59358;52.134;5.596;2024-03-23T06:30:49;21.92;;;5.53;;
19205;SDS011;59358;52.134;5.596;2024-03-23T06:33:16;16.27;;;5.18;;
19205;SDS011;59358;52.134;5.596;2024-03-23T06:35:42;21.70;;;5.32;;
19205;SDS011;59358;52.134;5.596;2024-03-23T06:38:09;13.48;;;3.53;;
19205;SDS011;59358;52.134;5.596;2024-03-23T06:40:37;24.77;;;4.70;;
19205;SDS011;59358;52.134;5.596;2024-03-23T06:43:03;14.48;;;3.78;;
19205;SDS011;59358;52.134;5.596;2024-03-23T06:45:30;18.00;;;3.75;;
19205;SDS011;59358;52.134;5.596;2024-03-23T06:47:57;18.02;;;3.83;;
19205;SDS011;59358;52.134;5.596;2024-03-23T06:50:23;11.82;;;3.47;;
19205;SDS011;59358;52.134;5.596;2024-03-23T06:52:50;14.80;;;3.58;;
19205;SDS011;59358;52.134;5.596;2024-03-23T06:55:15;14.63;;;3.70;;
19205;SDS011;59358;52.134;5.596;2024-03-23T06:57:44;17.38;;;3.60;;
19205;SDS011;59358;52.134;5.596;2024-03-23T07:00:10;13.10;;;3.65;;
19205;SDS011;59358;52.134;5.596;2024-03-23T07:02:38;15.20;;;3.45;;
19205;SDS011;59358;52.134;5.596;2024-03-23T07:05:04;17.05;;;3.40;;
19205;SDS011;59358;52.134;5.596;2024-03-23T07:07:32;16.20;;;4.15;;
19205;SDS011;59358;52.134;5.596;2024-03-23T07:09:58;14.70;;;3.78;;
19205;SDS011;59358;52.134;5.596;2024-03-23T07:12:24;12.35;;;2.92;;
19205;SDS011;59358;52.134;5.596;2024-03-23T07:14:51;13.88;;;3.35;;
19205;SDS011;59358;52.134;5.596;2024-03-23T07:17:18;20.20;;;3.60;;
19205;SDS011;59358;52.134;5.596;2024-03-23T07:19:44;13.70;;;4.20;;
19205;SDS011;59358;52.134;5.596;2024-03-23T07:22:12;13.23;;;4.75;;
19205;SDS011;59358;52.134;5.596;2024-03-23T07:24:39;16.40;;;4.53;;
19205;SDS011;59358;52.134;5.596;2024-03-23T07:27:06;12.15;;;3.75;;
19205;SDS011;59358;52.134;5.596;2024-03-23T07:29:35;15.43;;;4.10;;
19205;SDS011;59358;52.134;5.596;2024-03-23T07:32:03;12.95;;;4.07;;
19205;SDS011;59358;52.134;5.596;2024-03-23T07:34:29;15.68;;;4.38;;
19205;SDS011;59358;52.134;5.596;2024-03-23T07:36:56;10.95;;;3.65;;
19205;SDS011;59358;52.134;5.596;2024-03-23T07:39:22;13.13;;;3.83;;
19205;SDS011;59358;52.134;5.596;2024-03-23T07:41:49;25.52;;;4.50;;
19205;SDS011;59358;52.134;5.596;2024-03-23T07:44:15;21.02;;;4.68;;
19205;SDS011;59358;52.134;5.596;2024-03-23T07:46:42;17.27;;;4.40;;
19205;SDS011;59358;52.134;5.596;2024-03-23T07:49:09;15.50;;;4.72;;
19205;SDS011;59358;52.134;5.596;2024-03-23T07:51:36;14.82;;;4.10;;
19205;SDS011;59358;52.134;5.596;2024-03-23T07:54:04;14.02;;;4.07;;
19205;SDS011;59358;52.134;5.596;2024-03-23T07:56:31;14.82;;;3.97;;
19205;SDS011;59358;52.134;5.596;2024-03-23T07:58:57;18.50;;;5.57;;
19205;SDS011;59358;52.134;5.596;2024-03-23T08:01:24;20.05;;;4.07;;
19205;SDS011;59358;52.134;5.596;2024-03-23T08:03:50;14.20;;;3.80;;
19205;SDS011;59358;52.134;5.596;2024-03-23T08:06:18;11.55;;;3.72;;
19205;SDS011;59358;52.134;5.596;2024-03-23T08:08:46;14.00;;;3.50;;
19205;SDS011;59358;52.134;5.596;2024-03-23T08:11:14;11.60;;;3.72;;
19205;SDS011;59358;52.134;5.596;2024-03-23T08:13:40;10.32;;;3.20;;
19205;SDS011;59358;52.134;5.596;2024-03-23T08:16:11;14.48;;;4.65;;
19205;SDS011;59358;52.134;5.596;2024-03-23T08:18:37;9.88;;;3.70;;
19205;SDS011;59358;52.134;5.596;2024-03-23T08:21:04;11.15;;;2.83;;
19205;SDS011;59358;52.134;5.596;2024-03-23T08:23:33;17.42;;;3.75;;
19205;SDS011;59358;52.134;5.596;2024-03-23T08:26:01;12.07;;;2.70;;
19205;SDS011;59358;52.134;5.596;2024-03-23T08:28:28;10.15;;;3.03;;
19205;SDS011;59358;52.134;5.596;2024-03-23T08:30:55;14.52;;;3.15;;
19205;SDS011;59358;52.134;5.596;2024-03-23T08:33:22;12.68;;;2.72;;
19205;SDS011;59358;52.134;5.596;2024-03-23T08:35:53;8.98;;;2.70;;
19205;SDS011;59358;52.134;5.596;2024-03-23T08:38:20;10.13;;;2.67;;
19205;SDS011;59358;52.134;5.596;2024-03-23T08:40:53;13.43;;;3.25;;
19205;SDS011;59358;52.134;5.596;2024-03-23T08:43:22;14.25;;;2.90;;
19205;SDS011;59358;52.134;5.596;2024-03-23T08:45:48;8.18;;;2.63;;
19205;SDS011;59358;52.134;5.596;2024-03-23T08:48:15;13.68;;;2.90;;
19205;SDS011;59358;52.134;5.596;2024-03-23T08:50:41;9.10;;;2.42;;
19205;SDS011;59358;52.134;5.596;2024-03-23T08:53:07;7.72;;;1.98;;
19205;SDS011;59358;52.134;5.596;2024-03-23T08:55:34;9.82;;;2.00;;
19205;SDS011;59358;52.134;5.596;2024-03-23T08:58:02;10.85;;;2.13;;
19205;SDS011;59358;52.134;5.596;2024-03-23T09:00:29;11.32;;;3.08;;
19205;SDS011;59358;52.134;5.596;2024-03-23T09:02:54;11.73;;;2.20;;
19205;SDS011;59358;52.134;5.596;2024-03-23T09:05:22;7.32;;;2.03;;
19205;SDS011;59358;52.134;5.596;2024-03-23T09:07:49;10.77;;;2.65;;
19205;SDS011;59358;52.134;5.596;2024-03-23T09:10:16;7.82;;;3.05;;
19205;SDS011;59358;52.134;5.596;2024-03-23T09:12:41;13.27;;;2.50;;
19205;SDS011;59358;52.134;5.596;2024-03-23T09:15:09;14.55;;;2.53;;
19205;SDS011;59358;52.134;5.596;2024-03-23T09:17:35;9.30;;;2.55;;
19205;SDS011;59358;52.134;5.596;2024-03-23T09:20:02;7.22;;;1.90;;
19205;SDS011;59358;52.134;5.596;2024-03-23T09:22:29;12.13;;;2.17;;
19205;SDS011;59358;52.134;5.596;2024-03-23T09:24:56;7.10;;;1.85;;
19205;SDS011;59358;52.134;5.596;2024-03-23T09:27:22;8.25;;;1.98;;
19205;SDS011;59358;52.134;5.596;2024-03-23T09:29:48;5.28;;;1.55;;
19205;SDS011;59358;52.134;5.596;2024-03-23T09:32:16;5.13;;;1.60;;
19205;SDS011;59358;52.134;5.596;2024-03-23T09:34:43;10.55;;;2.38;;
19205;SDS011;59358;52.134;5.596;2024-03-23T09:37:08;9.15;;;2.25;;
19205;SDS011;59358;52.134;5.596;2024-03-23T09:39:35;13.82;;;2.22;;
19205;SDS011;59358;52.134;5.596;2024-03-23T09:42:01;11.82;;;1.98;;
19205;SDS011;59358;52.134;5.596;2024-03-23T09:44:28;23.05;;;3.72;;
19205;SDS011;59358;52.134;5.596;2024-03-23T09:46:54;6.60;;;2.00;;
19205;SDS011;59358;52.134;5.596;2024-03-23T09:49:25;6.32;;;1.95;;
19205;SDS011;59358;52.134;5.596;2024-03-23T09:51:52;9.73;;;2.10;;
19205;SDS011;59358;52.134;5.596;2024-03-23T09:54:20;2.90;;;1.50;;
19205;SDS011;59358;52.134;5.596;2024-03-23T09:56:46;8.90;;;2.42;;
19205;SDS011;59358;52.134;5.596;2024-03-23T09:59:13;10.98;;;2.88;;
19205;SDS011;59358;52.134;5.596;2024-03-23T10:01:39;6.85;;;2.35;;
19205;SDS011;59358;52.134;5.596;2024-03-23T10:04:06;6.57;;;1.80;;
19205;SDS011;59358;52.134;5.596;2024-03-23T10:06:33;3.75;;;1.10;;
19205;SDS011;59358;52.134;5.596;2024-03-23T10:09:01;2.08;;;1.10;;
19205;SDS011;59358;52.134;5.596;2024-03-23T10:11:41;6.45;;;1.70;;
19205;SDS011;59358;52.134;5.596;2024-03-23T10:14:09;6.97;;;2.45;;
19205;SDS011;59358;52.134;5.596;2024-03-23T10:16:35;10.02;;;2.63;;
19205;SDS011;59358;52.134;5.596;2024-03-23T10:19:01;10.52;;;2.13;;
19205;SDS011;59358;52.134;5.596;2024-03-23T10:21:27;12.80;;;2.63;;
19205;SDS011;59358;52.134;5.596;2024-03-23T10:23:55;9.73;;;2.72;;
19205;SDS011;59358;52.134;5.596;2024-03-23T10:26:32;12.20;;;2.50;;
19205;SDS011;59358;52.134;5.596;2024-03-23T10:29:00;13.77;;;3.03;;
19205;SDS011;59358;52.134;5.596;2024-03-23T10:31:27;16.92;;;3.13;;
19205;SDS011;59358;52.134;5.596;2024-03-23T10:33:54;8.38;;;2.20;;
19205;SDS011;59358;52.134;5.596;2024-03-23T10:36:20;9.98;;;2.25;;
19205;SDS011;59358;52.134;5.596;2024-03-23T10:38:48;13.40;;;2.90;;
19205;SDS011;59358;52.134;5.596;2024-03-23T10:41:17;10.18;;;2.80;;
19205;SDS011;59358;52.134;5.596;2024-03-23T10:43:45;16.00;;;2.67;;
19205;SDS011;59358;52.134;5.596;2024-03-23T10:46:12;16.83;;;2.53;;
19205;SDS011;59358;52.134;5.596;2024-03-23T10:48:39;12.13;;;2.35;;
19205;SDS011;59358;52.134;5.596;2024-03-23T10:51:06;15.38;;;2.50;;
19205;SDS011;59358;52.134;5.596;2024-03-23T10:53:34;12.68;;;2.35;;
19205;SDS011;59358;52.134;5.596;2024-03-23T10:56:02;10.05;;;2.17;;
19205;SDS011;59358;52.134;5.596;2024-03-23T10:58:31;14.05;;;4.05;;
19205;SDS011;59358;52.134;5.596;2024-03-23T11:01:02;11.82;;;2.70;;
19205;SDS011;59358;52.134;5.596;2024-03-23T11:03:30;11.18;;;2.47;;
19205;SDS011;59358;52.134;5.596;2024-03-23T11:05:57;13.48;;;2.95;;
19205;SDS011;59358;52.134;5.596;2024-03-23T11:08:34;8.65;;;1.75;;
19205;SDS011;59358;52.134;5.596;2024-03-23T11:11:17;6.90;;;1.77;;
19205;SDS011;59358;52.134;5.596;2024-03-23T11:13:47;7.65;;;1.98;;
19205;SDS011;59358;52.134;5.596;2024-03-23T11:16:14;4.97;;;1.85;;
19205;SDS011;59358;52.134;5.596;2024-03-23T11:18:42;10.50;;;1.63;;
19205;SDS011;59358;52.134;5.596;2024-03-23T11:21:11;9.23;;;1.95;;
19205;SDS011;59358;52.134;5.596;2024-03-23T11:24:16;7.75;;;1.70;;
19205;SDS011;59358;52.134;5.596;2024-03-23T11:26:43;9.52;;;2.30;;
19205;SDS011;59358;52.134;5.596;2024-03-23T11:29:12;12.30;;;1.95;;
19205;SDS011;59358;52.134;5.596;2024-03-23T11:31:39;11.50;;;2.35;;
19205;SDS011;59358;52.134;5.596;2024-03-23T11:34:12;10.52;;;2.50;;
19205;SDS011;59358;52.134;5.596;2024-03-23T11:36:38;7.78;;;2.10;;
19205;SDS011;59358;52.134;5.596;2024-03-23T11:39:11;10.82;;;2.65;;
19205;SDS011;59358;52.134;5.596;2024-03-23T11:41:44;11.93;;;2.55;;
19205;SDS011;59358;52.134;5.596;2024-03-23T11:44:17;9.27;;;2.35;;
19205;SDS011;59358;52.134;5.596;2024-03-23T11:46:43;9.43;;;2.63;;
19205;SDS011;59358;52.134;5.596;2024-03-23T11:49:20;10.75;;;2.15;;
19205;SDS011;59358;52.134;5.596;2024-03-23T11:51:47;13.30;;;2.17;;
19205;SDS011;59358;52.134;5.596;2024-03-23T11:54:14;10.05;;;2.00;;
19205;SDS011;59358;52.134;5.596;2024-03-23T11:56:40;9.50;;;2.13;;
19205;SDS011;59358;52.134;5.596;2024-03-23T11:59:06;12.77;;;2.50;;
19205;SDS011;59358;52.134;5.596;2024-03-23T12:01:34;7.43;;;1.90;;
19205;SDS011;59358;52.134;5.596;2024-03-23T12:04:01;7.50;;;2.00;;
19205;SDS011;59358;52.134;5.596;2024-03-23T12:06:27;10.10;;;1.85;;
19205;SDS011;59358;52.134;5.596;2024-03-23T12:08:54;8.38;;;2.08;;
19205;SDS011;59358;52.134;5.596;2024-03-23T12:11:31;9.00;;;1.63;;
19205;SDS011;59358;52.134;5.596;2024-03-23T12:13:59;6.90;;;2.00;;
19205;SDS011;59358;52.134;5.596;2024-03-23T12:16:28;8.88;;;2.00;;
19205;SDS011;59358;52.134;5.596;2024-03-23T12:18:56;9.60;;;2.00;;
19205;SDS011;59358;52.134;5.596;2024-03-23T12:21:30;10.50;;;2.15;;
19205;SDS011;59358;52.134;5.596;2024-03-23T12:23:57;14.25;;;2.40;;
19205;SDS011;59358;52.134;5.596;2024-03-23T12:26:23;9.02;;;2.33;;
19205;SDS011;59358;52.134;5.596;2024-03-23T12:28:50;9.07;;;2.20;;
19205;SDS011;59358;52.134;5.596;2024-03-23T12:31:16;13.15;;;2.08;;
19205;SDS011;59358;52.134;5.596;2024-03-23T12:33:43;6.90;;;1.98;;
19205;SDS011;59358;52.134;5.596;2024-03-23T12:36:13;6.32;;;2.28;;
19205;SDS011;59358;52.134;5.596;2024-03-23T12:38:40;11.73;;;2.55;;
19205;SDS011;59358;52.134;5.596;2024-03-23T12:41:06;10.68;;;3.17;;
19205;SDS011;59358;52.134;5.596;2024-03-23T12:43:34;11.02;;;2.28;;
19205;SDS011;59358;52.134;5.596;2024-03-23T12:46:03;6.72;;;2.28;;
19205;SDS011;59358;52.134;5.596;2024-03-23T12:48:29;16.83;;;4.32;;
19205;SDS011;59358;52.134;5.596;2024-03-23T12:50:56;13.15;;;2.42;;
19205;SDS011;59358;52.134;5.596;2024-03-23T12:53:24;8.68;;;2.10;;
19205;SDS011;59358;52.134;5.596;2024-03-23T12:55:50;10.90;;;2.30;;
19205;SDS011;59358;52.134;5.596;2024-03-23T12:58:16;5.80;;;2.10;;
19205;SDS011;59358;52.134;5.596;2024-03-23T13:00:42;7.78;;;2.35;;
19205;SDS011;59358;52.134;5.596;2024-03-23T13:03:13;10.85;;;2.20;;
19205;SDS011;59358;52.134;5.596;2024-03-23T13:05:40;6.22;;;1.80;;
19205;SDS011;59358;52.134;5.596;2024-03-23T13:08:07;9.75;;;2.25;;
19205;SDS011;59358;52.134;5.596;2024-03-23T13:10:34;9.77;;;2.03;;
19205;SDS011;59358;52.134;5.596;2024-03-23T13:13:01;12.50;;;2.08;;
19205;SDS011;59358;52.134;5.596;2024-03-23T13:15:27;9.32;;;1.92;;
19205;SDS011;59358;52.134;5.596;2024-03-23T13:17:53;12.65;;;1.90;;
19205;SDS011;59358;52.134;5.596;2024-03-23T13:20:19;7.35;;;2.08;;
19205;SDS011;59358;52.134;5.596;2024-03-23T13:22:46;13.82;;;2.63;;
19205;SDS011;59358;52.134;5.596;2024-03-23T13:25:12;10.95;;;2.00;;
19205;SDS011;59358;52.134;5.596;2024-03-23T13:27:40;7.28;;;1.58;;
19205;SDS011;59358;52.134;5.596;2024-03-23T13:30:07;18.33;;;2.83;;
19205;SDS011;59358;52.134;5.596;2024-03-23T13:32:34;8.85;;;2.10;;
19205;SDS011;59358;52.134;5.596;2024-03-23T13:35:00;13.18;;;2.05;;
19205;SDS011;59358;52.134;5.596;2024-03-23T13:37:27;4.43;;;1.70;;
19205;SDS011;59358;52.134;5.596;2024-03-23T13:40:12;10.90;;;1.80;;
19205;SDS011;59358;52.134;5.596;2024-03-23T13:42:38;5.60;;;0.80;;
19205;SDS011;59358;52.134;5.596;2024-03-23T13:45:06;3.58;;;1.00;;
19205;SDS011;59358;52.134;5.596;2024-03-23T13:47:33;5.57;;;0.90;;
19205;SDS011;59358;52.134;5.596;2024-03-23T13:50:00;4.93;;;1.02;;
19205;SDS011;59358;52.134;5.596;2024-03-23T13:52:25;5.88;;;1.00;;
19205;SDS011;59358;52.134;5.596;2024-03-23T13:54:52;3.22;;;1.00;;
19205;SDS011;59358;52.134;5.596;2024-03-23T13:57:18;2.45;;;0.77;;
19205;SDS011;59358;52.134;5.596;2024-03-23T13:59:46;6.13;;;1.23;;
19205;SDS011;59358;52.134;5.596;2024-03-23T14:02:13;4.00;;;1.27;;
19205;SDS011;59358;52.134;5.596;2024-03-23T14:04:41;5.88;;;1.63;;
19205;SDS011;59358;52.134;5.596;2024-03-23T14:07:07;4.32;;;1.25;;
19205;SDS011;59358;52.134;5.596;2024-03-23T14:09:37;5.35;;;1.42;;
19205;SDS011;59358;52.134;5.596;2024-03-23T14:12:07;8.05;;;1.50;;
19205;SDS011;59358;52.134;5.596;2024-03-23T14:14:34;7.70;;;2.00;;
19205;SDS011;59358;52.134;5.596;2024-03-23T14:17:00;9.27;;;2.42;;
19205;SDS011;59358;52.134;5.596;2024-03-23T14:19:28;9.95;;;2.22;;
19205;SDS011;59358;52.134;5.596;2024-03-23T14:21:54;7.78;;;2.00;;
19205;SDS011;59358;52.134;5.596;2024-03-23T14:24:21;8.77;;;2.08;;
19205;SDS011;59358;52.134;5.596;2024-03-23T14:26:47;5.25;;;1.75;;
19205;SDS011;59358;52.134;5.596;2024-03-23T14:29:14;11.07;;;2.45;;
19205;SDS011;59358;52.134;5.596;2024-03-23T14:31:40;8.82;;;2.42;;
19205;SDS011;59358;52.134;5.596;2024-03-23T14:34:07;7.32;;;2.15;;
19205;SDS011;59358;52.134;5.596;2024-03-23T14:36:35;4.60;;;1.60;;
19205;SDS011;59358;52.134;5.596;2024-03-23T14:39:02;9.40;;;1.85;;
19205;SDS011;59358;52.134;5.596;2024-03-23T14:41:29;9.52;;;2.10;;
19205;SDS011;59358;52.134;5.596;2024-03-23T14:43:55;8.95;;;1.95;;
19205;SDS011;59358;52.134;5.596;2024-03-23T14:46:22;11.75;;;2.20;;
19205;SDS011;59358;52.134;5.596;2024-03-23T14:48:48;9.50;;;1.83;;
19205;SDS011;59358;52.134;5.596;2024-03-23T14:51:14;10.15;;;1.75;;
19205;SDS011;59358;52.134;5.596;2024-03-23T14:53:45;6.70;;;2.08;;
19205;SDS011;59358;52.134;5.596;2024-03-23T14:56:13;8.20;;;1.95;;
19205;SDS011;59358;52.134;5.596;2024-03-23T14:58:41;7.32;;;2.00;;
19205;SDS011;59358;52.134;5.596;2024-03-23T15:01:07;10.90;;;2.17;;
19205;SDS011;59358;52.134;5.596;2024-03-23T15:03:35;6.68;;;1.98;;
19205;SDS011;59358;52.134;5.596;2024-03-23T15:06:01;6.35;;;1.73;;
19205;SDS011;59358;52.134;5.596;2024-03-23T15:08:28;8.68;;;1.90;;
19205;SDS011;59358;52.134;5.596;2024-03-23T15:10:58;13.15;;;2.53;;
19205;SDS011;59358;52.134;5.596;2024-03-23T15:13:25;5.47;;;2.22;;
19205;SDS011;59358;52.134;5.596;2024-03-23T15:15:52;12.43;;;1.73;;
19205;SDS011;59358;52.134;5.596;2024-03-23T15:18:19;6.45;;;2.15;;
19205;SDS011;59358;52.134;5.596;2024-03-23T15:20:53;5.10;;;2.30;;
19205;SDS011;59358;52.134;5.596;2024-03-23T15:23:20;7.07;;;2.00;;
19205;SDS011;59358;52.134;5.596;2024-03-23T15:25:53;4.75;;;1.92;;
19205;SDS011;59358;52.134;5.596;2024-03-23T15:28:21;3.13;;;1.60;;